Time;durP1;ratioP1;P1;durP2;ratioP2;P2;SDS_P1;SDS_P2;PMS_P1;PMS_P2;Temp;Humidity;BMP_temperature;BMP_pressure;BME280_temperature;BME280_humidity;BME280_pressure;Samples;Min_cycle;Max_cycle;Signal;HPM_P1;HPM_P2
2022/06/29 00:00:08;;;;;;;6.20;2.38;;;;;;;;;;5058101;28;20068;-78
2022/06/29 00:02:34;;;;;;;5.85;2.53;;;;;;;;;;5067493;28;20079;-80
2022/06/29 00:05:00;;;;;;;9.27;2.85;;;;;;;;;;5071093;28;20033;-79
2022/06/29 00:07:26;;;;;;;5.82;2.13;;;;;;;;;;5065403;28;20461;-79
2022/06/29 00:09:52;;;;;;;6.47;3.42;;;;;;;;;;5069194;28;20021;-79
2022/06/29 00:12:18;;;;;;;7.13;2.78;;;;;;;;;;5075731;28;20025;-79
2022/06/29 00:14:45;;;;;;;10.88;3.03;;;;;;;;;;5063825;28;20024;-78
2022/06/29 00:17:11;;;;;;;7.13;3.17;;;;;;;;;;5061465;28;20040;-79
2022/06/29 00:19:38;;;;;;;7.88;2.15;;;;;;;;;;5060878;28;20021;-79
2022/06/29 00:22:05;;;;;;;7.78;2.20;;;;;;;;;;5070173;28;20475;-78
2022/06/29 00:24:32;;;;;;;11.65;2.80;;;;;;;;;;5064385;28;20118;-78
2022/06/29 00:26:58;;;;;;;10.70;2.47;;;;;;;;;;5074201;28;20052;-79
2022/06/29 00:29:24;;;;;;;7.60;2.20;;;;;;;;;;5056957;28;20029;-78
2022/06/29 00:31:50;;;;;;;7.60;2.70;;;;;;;;;;5064832;28;20086;-79
2022/06/29 00:34:17;;;;;;;9.57;2.90;;;;;;;;;;5064873;28;20058;-78
2022/06/29 00:36:43;;;;;;;8.05;2.60;;;;;;;;;;5064210;28;20024;-79
2022/06/29 00:39:09;;;;;;;6.30;2.40;;;;;;;;;;5066377;28;20017;-79
2022/06/29 00:41:39;;;;;;;7.07;2.40;;;;;;;;;;5055465;28;20021;-78
2022/06/29 00:44:07;;;;;;;6.30;2.47;;;;;;;;;;5054070;28;20055;-78
2022/06/29 00:46:34;;;;;;;5.07;2.30;;;;;;;;;;5054897;28;20031;-79
2022/06/29 00:49:00;;;;;;;8.00;2.80;;;;;;;;;;5065792;28;20108;-78
2022/06/29 00:51:27;;;;;;;7.72;2.30;;;;;;;;;;5067249;28;20033;-78
2022/06/29 00:53:55;;;;;;;4.68;2.50;;;;;;;;;;5059063;28;20028;-79
2022/06/29 00:56:22;;;;;;;5.53;2.88;;;;;;;;;;5060236;28;20479;-78
2022/06/29 00:58:49;;;;;;;6.25;2.03;;;;;;;;;;5058969;28;20111;-78
2022/06/29 01:01:15;;;;;;;7.13;2.42;;;;;;;;;;5070704;28;20013;-77
2022/06/29 01:03:41;;;;;;;9.73;2.85;;;;;;;;;;5067096;28;20058;-78
2022/06/29 01:06:08;;;;;;;5.57;2.78;;;;;;;;;;5060921;28;20020;-79
2022/06/29 01:08:34;;;;;;;7.78;2.65;;;;;;;;;;5057242;28;20386;-79
2022/06/29 01:11:00;;;;;;;5.97;2.20;;;;;;;;;;5062345;28;20517;-79
2022/06/29 01:13:26;;;;;;;6.57;2.30;;;;;;;;;;5060042;28;20082;-77
2022/06/29 01:15:52;;;;;;;5.13;2.55;;;;;;;;;;5059587;28;20025;-79
2022/06/29 01:18:18;;;;;;;9.25;2.60;;;;;;;;;;5062635;28;20021;-79
2022/06/29 01:20:44;;;;;;;9.38;2.88;;;;;;;;;;5057656;28;20122;-79
2022/06/29 01:23:10;;;;;;;6.35;2.85;;;;;;;;;;5054995;28;20040;-78
2022/06/29 01:25:36;;;;;;;9.02;2.75;;;;;;;;;;5062855;28;20112;-77
2022/06/29 01:28:02;;;;;;;9.95;3.13;;;;;;;;;;5061291;28;20053;-80
2022/06/29 01:30:28;;;;;;;7.07;2.47;;;;;;;;;;5057384;28;20052;-79
2022/06/29 01:32:54;;;;;;;5.50;2.67;;;;;;;;;;5069349;28;20021;-78
2022/06/29 01:35:23;;;;;;;11.00;2.38;;;;;;;;;;5060957;28;20077;-79
2022/06/29 01:37:49;;;;;;;14.63;3.03;;;;;;;;;;5054541;28;20551;-78
2022/06/29 01:40:16;;;;;;;6.43;2.75;;;;;;;;;;5060778;28;20473;-78
2022/06/29 01:42:42;;;;;;;5.22;2.70;;;;;;;;;;5062964;28;20103;-78
2022/06/29 01:45:08;;;;;;;3.85;2.22;;;;;;;;;;5062821;28;20027;-80
2022/06/29 01:47:34;;;;;;;7.03;2.60;;;;;;;;;;5066486;28;20035;-80
2022/06/29 01:50:00;;;;;;;6.28;2.50;;;;;;;;;;5064208;28;20065;-79
2022/06/29 01:52:26;;;;;;;8.65;2.42;;;;;;;;;;5057076;28;20033;-79
2022/06/29 01:54:52;;;;;;;6.90;2.80;;;;;;;;;;5063409;28;20027;-79
2022/06/29 01:57:18;;;;;;;9.63;2.60;;;;;;;;;;5063583;28;20028;-79
2022/06/29 01:59:45;;;;;;;9.18;2.63;;;;;;;;;;5057958;28;20029;-80
2022/06/29 02:02:11;;;;;;;9.43;2.30;;;;;;;;;;5065053;28;20032;-79
2022/06/29 02:04:37;;;;;;;10.27;2.65;;;;;;;;;;5069585;28;20432;-79
2022/06/29 02:07:03;;;;;;;6.22;2.67;;;;;;;;;;5063983;28;20017;-78
2022/06/29 02:09:29;;;;;;;8.23;2.35;;;;;;;;;;5071268;28;20395;-79
2022/06/29 02:11:56;;;;;;;9.95;2.55;;;;;;;;;;5064240;28;20033;-78
2022/06/29 02:14:22;;;;;;;7.47;2.95;;;;;;;;;;5065298;28;20044;-78
2022/06/29 02:16:48;;;;;;;9.65;2.90;;;;;;;;;;5064158;28;20024;-78
2022/06/29 02:19:14;;;;;;;18.20;3.70;;;;;;;;;;5057734;28;20027;-78
2022/06/29 02:21:40;;;;;;;11.20;3.03;;;;;;;;;;5060848;28;20379;-78
2022/06/29 02:24:06;;;;;;;7.50;2.25;;;;;;;;;;5058389;28;20025;-80
2022/06/29 02:26:32;;;;;;;10.07;2.20;;;;;;;;;;5068455;28;20036;-78
2022/06/29 02:28:58;;;;;;;6.22;2.28;;;;;;;;;;5066301;28;20249;-78
2022/06/29 02:36:54;;;;;;;3.60;2.03;;;;;;;;;;5060670;28;20573;-78
2022/06/29 02:39:20;;;;;;;9.10;2.80;;;;;;;;;;5054409;28;20025;-80
2022/06/29 02:41:46;;;;;;;7.47;2.40;;;;;;;;;;5061345;28;20051;-79
2022/06/29 02:44:12;;;;;;;7.78;2.70;;;;;;;;;;5057133;28;20025;-78
2022/06/29 02:46:38;;;;;;;12.85;2.72;;;;;;;;;;5058429;28;20040;-79
2022/06/29 02:49:04;;;;;;;8.77;2.75;;;;;;;;;;5059274;28;20024;-78
2022/06/29 02:51:30;;;;;;;4.82;2.00;;;;;;;;;;5064387;28;20029;-79
2022/06/29 02:53:56;;;;;;;3.78;2.03;;;;;;;;;;5059412;28;20035;-79
2022/06/29 02:56:22;;;;;;;4.38;2.38;;;;;;;;;;5060043;28;20040;-79
2022/06/29 02:58:49;;;;;;;12.65;3.00;;;;;;;;;;5058894;28;20028;-80
2022/06/29 03:01:15;;;;;;;6.53;3.13;;;;;;;;;;5058306;28;20052;-80
2022/06/29 03:03:41;;;;;;;10.07;2.88;;;;;;;;;;5068171;28;20017;-80
2022/06/29 03:06:07;;;;;;;6.50;2.10;;;;;;;;;;5054483;28;20541;-79
2022/06/29 03:08:33;;;;;;;7.22;2.30;;;;;;;;;;5057617;28;20033;-78
2022/06/29 03:10:59;;;;;;;7.88;2.17;;;;;;;;;;5064264;28;20028;-79
2022/06/29 03:13:25;;;;;;;6.93;3.13;;;;;;;;;;5080015;28;20553;-78
2022/06/29 03:15:51;;;;;;;4.90;2.30;;;;;;;;;;5061577;28;20020;-78
2022/06/29 03:18:18;;;;;;;11.75;2.88;;;;;;;;;;5065972;28;20025;-78
2022/06/29 03:20:44;;;;;;;8.55;2.75;;;;;;;;;;5066466;28;20040;-78
2022/06/29 03:23:10;;;;;;;12.60;2.90;;;;;;;;;;5060090;28;20372;-78
2022/06/29 03:25:36;;;;;;;5.60;2.53;;;;;;;;;;5061938;28;20111;-78
2022/06/29 03:28:02;;;;;;;7.35;2.25;;;;;;;;;;5062459;28;20047;-78
2022/06/29 03:30:28;;;;;;;8.35;2.72;;;;;;;;;;5057556;28;20027;-79
2022/06/29 03:32:54;;;;;;;5.30;2.30;;;;;;;;;;5055147;28;20247;-79
2022/06/29 03:35:21;;;;;;;9.30;3.67;;;;;;;;;;5065726;28;20020;-78
2022/06/29 03:37:47;;;;;;;6.35;2.45;;;;;;;;;;5056798;28;20507;-79
2022/06/29 03:40:14;;;;;;;4.82;2.03;;;;;;;;;;5055586;28;20035;-80
2022/06/29 03:42:40;;;;;;;4.57;2.05;;;;;;;;;;5058669;28;20447;-78
2022/06/29 03:45:06;;;;;;;5.15;2.10;;;;;;;;;;5055477;28;20025;-78
2022/06/29 03:47:32;;;;;;;12.02;3.20;;;;;;;;;;5059991;28;20107;-78
2022/06/29 03:49:59;;;;;;;4.93;2.53;;;;;;;;;;5052608;28;20459;-79
2022/06/29 03:52:25;;;;;;;4.70;2.90;;;;;;;;;;5061351;28;20021;-79
2022/06/29 03:54:51;;;;;;;4.88;2.75;;;;;;;;;;5065419;28;20021;-79
2022/06/29 03:57:17;;;;;;;4.68;2.60;;;;;;;;;;5058321;28;20054;-78
2022/06/29 03:59:43;;;;;;;7.38;2.97;;;;;;;;;;5060137;28;20028;-78
2022/06/29 04:02:09;;;;;;;10.32;2.92;;;;;;;;;;5048465;28;20025;-78
2022/06/29 04:04:35;;;;;;;9.75;2.75;;;;;;;;;;5066240;28;20033;-78
2022/06/29 04:07:02;;;;;;;8.88;2.90;;;;;;;;;;5058844;28;20182;-79
2022/06/29 04:09:28;;;;;;;5.18;2.50;;;;;;;;;;5056742;28;20028;-79
2022/06/29 04:11:54;;;;;;;10.35;2.53;;;;;;;;;;5067847;28;20032;-78
2022/06/29 04:14:22;;;;;;;4.40;2.22;;;;;;;;;;5057880;28;20016;-78
2022/06/29 04:16:48;;;;;;;7.05;2.25;;;;;;;;;;5062522;28;20040;-78
2022/06/29 04:19:14;;;;;;;8.23;2.53;;;;;;;;;;5059741;28;20031;-79
2022/06/29 04:21:40;;;;;;;7.65;2.17;;;;;;;;;;5057322;28;20063;-78
2022/06/29 04:24:06;;;;;;;4.45;2.20;;;;;;;;;;5069136;28;20503;-78
2022/06/29 04:26:33;;;;;;;9.60;2.80;;;;;;;;;;5061642;28;20336;-78
2022/06/29 04:29:00;;;;;;;4.75;2.70;;;;;;;;;;5061068;28;20041;-78
2022/06/29 04:31:26;;;;;;;11.48;3.28;;;;;;;;;;5062587;28;20029;-78
2022/06/29 04:33:52;;;;;;;5.90;2.40;;;;;;;;;;5057319;28;20239;-77
2022/06/29 04:36:19;;;;;;;5.57;2.75;;;;;;;;;;5053628;28;20529;-78
2022/06/29 04:38:45;;;;;;;9.07;2.65;;;;;;;;;;5057165;28;20040;-78
2022/06/29 04:41:12;;;;;;;7.15;3.03;;;;;;;;;;5059515;28;20409;-78
2022/06/29 04:43:38;;;;;;;3.50;2.33;;;;;;;;;;5060220;28;20597;-77
2022/06/29 04:46:19;;;;;;;5.75;2.30;;;;;;;;;;5061804;28;20082;-78
2022/06/29 04:48:46;;;;;;;6.45;2.15;;;;;;;;;;5062307;28;20425;-78
2022/06/29 04:51:12;;;;;;;6.55;2.88;;;;;;;;;;5056786;28;20163;-78
2022/06/29 04:53:38;;;;;;;6.15;3.17;;;;;;;;;;5061983;28;20067;-77
2022/06/29 04:56:04;;;;;;;6.57;2.50;;;;;;;;;;5067524;28;20498;-79
2022/06/29 04:58:30;;;;;;;4.72;2.30;;;;;;;;;;5057988;28;20504;-78
2022/06/29 05:00:56;;;;;;;4.72;2.17;;;;;;;;;;5064726;28;20033;-78
2022/06/29 05:03:23;;;;;;;4.20;2.50;;;;;;;;;;5060279;28;20036;-77
2022/06/29 05:05:49;;;;;;;5.97;2.55;;;;;;;;;;5057392;28;20065;-78
2022/06/29 05:08:15;;;;;;;4.28;2.28;;;;;;;;;;5056722;28;20063;-77
2022/06/29 05:10:42;;;;;;;5.82;2.35;;;;;;;;;;5060277;28;20052;-77
2022/06/29 05:13:11;;;;;;;7.35;2.67;;;;;;;;;;5063264;28;20080;-77
2022/06/29 05:15:39;;;;;;;7.80;2.40;;;;;;;;;;5061507;28;20082;-78
2022/06/29 05:18:06;;;;;;;4.05;2.88;;;;;;;;;;5066771;28;20020;-77
2022/06/29 05:20:32;;;;;;;4.32;2.25;;;;;;;;;;5053725;28;20513;-77
2022/06/29 05:22:58;;;;;;;4.82;2.40;;;;;;;;;;5068045;28;20087;-76
2022/06/29 05:25:24;;;;;;;6.93;2.33;;;;;;;;;;5062282;28;20040;-77
2022/06/29 05:27:51;;;;;;;5.53;2.50;;;;;;;;;;5063066;28;20403;-77
2022/06/29 05:30:17;;;;;;;5.45;2.10;;;;;;;;;;5064650;28;20036;-78
2022/06/29 05:32:43;;;;;;;8.13;2.60;;;;;;;;;;5055105;28;20028;-77
2022/06/29 05:35:10;;;;;;;7.28;2.80;;;;;;;;;;5056499;28;20071;-78
2022/06/29 05:37:37;;;;;;;3.30;3.00;;;;;;;;;;5062380;28;20032;-78
2022/06/29 05:40:03;;;;;;;8.98;2.47;;;;;;;;;;5060252;28;20053;-78
2022/06/29 05:42:29;;;;;;;6.30;3.30;;;;;;;;;;5062312;28;20682;-78
2022/06/29 05:44:56;;;;;;;5.60;2.40;;;;;;;;;;5061737;28;20064;-77
2022/06/29 05:47:22;;;;;;;6.35;2.25;;;;;;;;;;5059902;28;20032;-77
2022/06/29 05:49:48;;;;;;;5.90;2.72;;;;;;;;;;5055904;28;20028;-77
2022/06/29 05:52:14;;;;;;;8.40;2.45;;;;;;;;;;5050454;28;20634;-78
2022/06/29 05:54:40;;;;;;;6.15;2.50;;;;;;;;;;5057539;28;20024;-78
2022/06/29 05:57:06;;;;;;;4.05;2.13;;;;;;;;;;5060816;28;20040;-78
2022/06/29 05:59:33;;;;;;;7.68;2.15;;;;;;;;;;5056468;28;20032;-78
2022/06/29 06:01:59;;;;;;;3.33;2.25;;;;;;;;;;5054719;28;20021;-79
2022/06/29 06:04:25;;;;;;;4.13;2.22;;;;;;;;;;5060776;28;20025;-78
2022/06/29 06:06:52;;;;;;;8.07;2.10;;;;;;;;;;5066739;28;20471;-79
2022/06/29 06:09:22;;;;;;;5.93;3.20;;;;;;;;;;5063597;28;20028;-79
2022/06/29 06:11:48;;;;;;;4.25;2.63;;;;;;;;;;5060824;28;20020;-79
2022/06/29 06:14:14;;;;;;;6.57;2.53;;;;;;;;;;5058883;28;20025;-79
2022/06/29 06:16:40;;;;;;;3.70;2.08;;;;;;;;;;5058263;28;20039;-78
2022/06/29 06:19:06;;;;;;;3.53;2.08;;;;;;;;;;5059766;28;20034;-79
2022/06/29 06:21:32;;;;;;;6.05;2.28;;;;;;;;;;5069610;28;20526;-77
2022/06/29 06:23:58;;;;;;;5.93;2.30;;;;;;;;;;5052808;28;20037;-79
2022/06/29 06:26:24;;;;;;;3.78;2.28;;;;;;;;;;5057922;28;20035;-79
2022/06/29 06:28:52;;;;;;;5.50;2.58;;;;;;;;;;5049347;28;20351;-78
2022/06/29 06:31:18;;;;;;;6.88;2.30;;;;;;;;;;5063258;28;20028;-78
2022/06/29 06:33:44;;;;;;;5.93;3.35;;;;;;;;;;5059421;28;20025;-78
2022/06/29 06:36:10;;;;;;;6.70;3.28;;;;;;;;;;5064801;28;20066;-79
2022/06/29 06:38:36;;;;;;;4.38;2.20;;;;;;;;;;5064733;28;20033;-78
2022/06/29 06:43:48;;;;;;;7.95;2.88;;;;;;;;;;5059347;28;20139;-79
2022/06/29 06:46:14;;;;;;;6.68;2.25;;;;;;;;;;5056914;28;20603;-78
2022/06/29 06:48:42;;;;;;;4.88;2.25;;;;;;;;;;5056940;28;20098;-78
2022/06/29 06:51:10;;;;;;;10.48;3.63;;;;;;;;;;5062103;28;20024;-79
2022/06/29 06:53:36;;;;;;;6.20;2.55;;;;;;;;;;5059866;28;20036;-75
2022/06/29 06:56:02;;;;;;;6.97;2.85;;;;;;;;;;5061392;28;20028;-78
2022/06/29 06:58:28;;;;;;;4.20;2.53;;;;;;;;;;5060869;28;20028;-79
2022/06/29 07:00:54;;;;;;;4.53;2.42;;;;;;;;;;5065853;28;20035;-79
2022/06/29 07:03:20;;;;;;;6.78;3.05;;;;;;;;;;5059747;28;20507;-78
2022/06/29 07:05:46;;;;;;;6.28;2.55;;;;;;;;;;5072159;28;20715;-79
2022/06/29 07:08:12;;;;;;;7.40;2.78;;;;;;;;;;5063002;28;20104;-79
2022/06/29 07:10:39;;;;;;;3.90;2.03;;;;;;;;;;5052231;28;20067;-79
2022/06/29 07:13:05;;;;;;;6.18;3.60;;;;;;;;;;5055675;28;20082;-79
2022/06/29 07:15:31;;;;;;;9.38;2.92;;;;;;;;;;5058386;28;20104;-80
2022/06/29 07:17:57;;;;;;;7.25;2.65;;;;;;;;;;5067915;28;20092;-79
2022/06/29 07:20:28;;;;;;;4.75;2.42;;;;;;;;;;5067662;28;20055;-79
2022/06/29 07:22:54;;;;;;;8.93;2.45;;;;;;;;;;5057929;28;20021;-79
2022/06/29 07:25:20;;;;;;;5.00;2.33;;;;;;;;;;5055631;28;20025;-79
2022/06/29 07:27:46;;;;;;;5.63;2.63;;;;;;;;;;5063025;28;20582;-78
2022/06/29 07:30:12;;;;;;;3.60;2.20;;;;;;;;;;5063683;28;20032;-79
2022/06/29 07:32:38;;;;;;;5.65;2.70;;;;;;;;;;5058322;28;20145;-76
2022/06/29 07:35:05;;;;;;;4.25;2.10;;;;;;;;;;5063374;28;20048;-78
2022/06/29 07:37:31;;;;;;;3.15;2.35;;;;;;;;;;5066423;28;20031;-77
2022/06/29 07:39:57;;;;;;;5.63;2.22;;;;;;;;;;5066332;28;20056;-78
2022/06/29 07:42:23;;;;;;;8.30;3.17;;;;;;;;;;5067172;28;20098;-76
2022/06/29 07:44:49;;;;;;;4.30;2.38;;;;;;;;;;5064117;28;20029;-78
2022/06/29 07:47:16;;;;;;;4.30;2.20;;;;;;;;;;5061788;28;20036;-76
2022/06/29 07:49:42;;;;;;;3.90;2.10;;;;;;;;;;5063346;28;20078;-78
2022/06/29 07:52:08;;;;;;;4.60;2.50;;;;;;;;;;5062772;28;20029;-77
2022/06/29 07:54:34;;;;;;;5.68;2.25;;;;;;;;;;5066119;28;20518;-76
2022/06/29 07:57:00;;;;;;;4.53;2.38;;;;;;;;;;5063091;28;20028;-78
2022/06/29 07:59:26;;;;;;;3.63;1.90;;;;;;;;;;5063534;28;20111;-78
2022/06/29 08:01:52;;;;;;;5.32;2.15;;;;;;;;;;5065185;28;20032;-75
2022/06/29 08:04:18;;;;;;;4.57;2.90;;;;;;;;;;5063072;28;20074;-76
2022/06/29 08:06:44;;;;;;;8.38;2.40;;;;;;;;;;5061515;28;20107;-74
2022/06/29 08:09:10;;;;;;;3.22;2.13;;;;;;;;;;5061469;28;20097;-76
2022/06/29 08:11:36;;;;;;;5.45;2.70;;;;;;;;;;5063843;28;20039;-75
2022/06/29 08:14:04;;;;;;;6.43;2.40;;;;;;;;;;5061171;28;20016;-75
2022/06/29 08:16:32;;;;;;;5.18;2.20;;;;;;;;;;5064700;28;20512;-76
2022/06/29 08:18:58;;;;;;;5.47;2.42;;;;;;;;;;5061423;28;20059;-75
2022/06/29 08:21:24;;;;;;;6.70;1.92;;;;;;;;;;5061423;28;20032;-76
2022/06/29 08:23:50;;;;;;;3.67;2.35;;;;;;;;;;5063002;28;20112;-75
2022/06/29 08:26:16;;;;;;;5.50;2.22;;;;;;;;;;5064299;28;20024;-76
2022/06/29 08:28:42;;;;;;;7.20;1.85;;;;;;;;;;5060792;28;20172;-76
2022/06/29 08:31:09;;;;;;;3.58;2.10;;;;;;;;;;5068409;28;20029;-76
2022/06/29 08:33:35;;;;;;;4.22;2.22;;;;;;;;;;5063664;28;20111;-75
2022/06/29 08:36:01;;;;;;;3.75;2.08;;;;;;;;;;5068197;28;20031;-77
2022/06/29 08:38:27;;;;;;;3.95;2.00;;;;;;;;;;5066180;28;20029;-77
2022/06/29 08:40:53;;;;;;;3.42;2.03;;;;;;;;;;5065867;28;20198;-77
2022/06/29 08:43:22;;;;;;;8.07;3.00;;;;;;;;;;5068324;28;20037;-78
2022/06/29 08:45:49;;;;;;;4.82;2.20;;;;;;;;;;5065010;28;20653;-74
2022/06/29 08:48:16;;;;;;;5.28;2.05;;;;;;;;;;5062599;28;20024;-77
2022/06/29 08:50:43;;;;;;;4.57;2.10;;;;;;;;;;5063097;28;20024;-77
2022/06/29 08:53:13;;;;;;;3.28;2.50;;;;;;;;;;5065425;28;20355;-78
2022/06/29 08:55:42;;;;;;;5.47;1.90;;;;;;;;;;5062058;28;20518;-78
2022/06/29 08:58:08;;;;;;;4.00;2.45;;;;;;;;;;5064993;28;20028;-77
2022/06/29 09:00:40;;;;;;;5.07;2.20;;;;;;;;;;5067923;28;20036;-76
2022/06/29 09:03:07;;;;;;;4.55;2.35;;;;;;;;;;5067527;28;20032;-77
2022/06/29 09:05:33;;;;;;;7.18;2.85;;;;;;;;;;5066621;28;20040;-78
2022/06/29 09:08:00;;;;;;;6.55;2.13;;;;;;;;;;5067760;28;20016;-76
2022/06/29 09:10:33;;;;;;;3.75;1.85;;;;;;;;;;5064629;28;20486;-76
2022/06/29 09:13:00;;;;;;;5.00;2.15;;;;;;;;;;5062262;28;20516;-79
2022/06/29 09:15:33;;;;;;;5.70;2.10;;;;;;;;;;5062905;28;20016;-78
2022/06/29 09:18:00;;;;;;;4.28;1.90;;;;;;;;;;5065310;28;20050;-78
2022/06/29 09:20:37;;;;;;;3.28;2.10;;;;;;;;;;5073086;28;20084;-78
2022/06/29 09:23:03;;;;;;;2.22;1.67;;;;;;;;;;5070292;28;20523;-77
2022/06/29 09:25:31;;;;;;;6.45;2.40;;;;;;;;;;5066365;28;20574;-77
2022/06/29 09:27:57;;;;;;;3.13;2.00;;;;;;;;;;5063943;28;20060;-77
2022/06/29 09:30:27;;;;;;;2.53;1.80;;;;;;;;;;5064330;28;20032;-79
2022/06/29 09:33:09;;;;;;;3.45;1.92;;;;;;;;;;5068131;28;20025;-77
2022/06/29 09:35:36;;;;;;;3.78;2.17;;;;;;;;;;5064430;28;20021;-77
2022/06/29 09:38:19;;;;;;;6.97;1.83;;;;;;;;;;5059546;28;20024;-77
2022/06/29 09:41:05;;;;;;;4.15;1.98;;;;;;;;;;5063172;28;20028;-78
2022/06/29 09:43:32;;;;;;;3.05;1.95;;;;;;;;;;5066240;28;20024;-77
2022/06/29 09:46:00;;;;;;;4.47;1.80;;;;;;;;;;5071991;28;20376;-76
2022/06/29 09:48:27;;;;;;;2.70;1.80;;;;;;;;;;5067198;28;20020;-78
2022/06/29 09:50:54;;;;;;;2.63;1.98;;;;;;;;;;5073845;28;20052;-77
2022/06/29 09:53:25;;;;;;;2.53;1.80;;;;;;;;;;5090557;28;20029;-78
2022/06/29 09:55:53;;;;;;;2.00;1.70;;;;;;;;;;5080458;28;20016;-76
2022/06/29 09:58:23;;;;;;;3.03;1.80;;;;;;;;;;5075181;28;20020;-79
2022/06/29 10:03:34;;;;;;;1.83;1.73;;;;;;;;;;5071600;28;20043;-78
2022/06/29 10:06:08;;;;;;;4.18;2.78;;;;;;;;;;5070907;28;20262;-78
2022/06/29 10:08:35;;;;;;;2.05;1.60;;;;;;;;;;5071970;28;20024;-79
2022/06/29 10:13:39;;;;;;;2.53;1.80;;;;;;;;;;5086869;28;20031;-78
2022/06/29 10:13:55;;;;;;;2.85;1.80;;;;;;;;;;5067888;28;20012;-78
2022/06/29 10:16:27;;;;;;;3.22;1.75;;;;;;;;;;5064072;28;20113;-78
2022/06/29 10:19:20;;;;;;;2.17;1.70;;;;;;;;;;5062101;28;20032;-78
2022/06/29 10:21:47;;;;;;;2.35;1.73;;;;;;;;;;5064392;28;20039;-77
2022/06/29 10:24:16;;;;;;;2.28;1.90;;;;;;;;;;5063750;28;20032;-77
2022/06/29 10:26:43;;;;;;;3.55;1.92;;;;;;;;;;5064638;28;20055;-78
2022/06/29 10:29:10;;;;;;;2.67;1.80;;;;;;;;;;5063659;28;20029;-77
2022/06/29 10:31:56;;;;;;;3.47;2.63;;;;;;;;;;5066980;28;20126;-76
2022/06/29 10:34:32;;;;;;;4.53;1.90;;;;;;;;;;5071260;28;20021;-78
2022/06/29 10:37:04;;;;;;;1.90;1.65;;;;;;;;;;5066958;28;20063;-77
2022/06/29 10:39:36;;;;;;;2.80;1.60;;;;;;;;;;5064611;28;20367;-75
2022/06/29 10:45:01;;;;;;;2.53;2.00;;;;;;;;;;5066293;28;20398;-78
2022/06/29 10:47:27;;;;;;;3.05;2.00;;;;;;;;;;5067929;28;20021;-78
2022/06/29 10:50:26;;;;;;;3.92;1.90;;;;;;;;;;5063702;28;20039;-77
2022/06/29 10:52:53;;;;;;;1.92;1.83;;;;;;;;;;5052683;28;20046;-77
2022/06/29 10:55:20;;;;;;;3.30;2.10;;;;;;;;;;5065813;28;20035;-77
2022/06/29 10:57:46;;;;;;;2.55;1.75;;;;;;;;;;5067199;28;20552;-75
2022/06/29 11:00:21;;;;;;;3.70;2.15;;;;;;;;;;5063233;28;20060;-79
2022/06/29 11:02:48;;;;;;;3.72;1.98;;;;;;;;;;5064285;28;20096;-77
2022/06/29 11:05:14;;;;;;;2.65;1.85;;;;;;;;;;5064894;28;20070;-76
2022/06/29 11:13:21;;;;;;;2.08;1.55;;;;;;;;;;5064100;28;20036;-76
2022/06/29 11:15:49;;;;;;;2.88;1.73;;;;;;;;;;5070452;28;20030;-78
2022/06/29 11:18:17;;;;;;;1.83;1.58;;;;;;;;;;5068766;28;20023;-78
2022/06/29 11:20:44;;;;;;;4.35;2.17;;;;;;;;;;5067061;28;20107;-77
2022/06/29 11:23:13;;;;;;;4.20;2.17;;;;;;;;;;5066781;28;20033;-77
2022/06/29 11:25:40;;;;;;;3.78;1.85;;;;;;;;;;5066393;28;20029;-76
2022/06/29 11:28:06;;;;;;;2.85;1.58;;;;;;;;;;5065438;28;20198;-78
2022/06/29 11:30:33;;;;;;;4.13;1.88;;;;;;;;;;5069340;28;20514;-77
2022/06/29 11:32:59;;;;;;;2.20;1.95;;;;;;;;;;5068040;28;20070;-75
2022/06/29 11:35:26;;;;;;;2.67;1.70;;;;;;;;;;5065159;28;20032;-75
2022/06/29 11:37:53;;;;;;;2.38;1.70;;;;;;;;;;5061420;28;20534;-76
2022/06/29 11:40:36;;;;;;;2.70;2.15;;;;;;;;;;5064939;28;20105;-76
2022/06/29 11:43:07;;;;;;;4.93;2.10;;;;;;;;;;5063330;28;20671;-76
2022/06/29 11:45:45;;;;;;;4.05;2.00;;;;;;;;;;5063829;28;20036;-77
2022/06/29 11:48:14;;;;;;;3.17;1.70;;;;;;;;;;5064555;28;20024;-75
2022/06/29 11:50:43;;;;;;;4.03;1.70;;;;;;;;;;5062159;28;20032;-77
2022/06/29 11:53:10;;;;;;;4.78;1.80;;;;;;;;;;5060657;28;20031;-75
2022/06/29 11:55:44;;;;;;;5.05;2.00;;;;;;;;;;5061189;28;20091;-74
2022/06/29 11:58:11;;;;;;;2.38;1.75;;;;;;;;;;5070421;28;20357;-76
2022/06/29 12:00:39;;;;;;;5.72;1.90;;;;;;;;;;5064423;28;20083;-78
2022/06/29 12:03:05;;;;;;;4.63;1.80;;;;;;;;;;5061557;28;20028;-76
2022/06/29 12:05:31;;;;;;;3.30;1.80;;;;;;;;;;5067119;28;20103;-76
2022/06/29 12:07:58;;;;;;;4.05;1.80;;;;;;;;;;5067788;28;20028;-77
2022/06/29 12:10:24;;;;;;;4.25;1.88;;;;;;;;;;5069053;28;20025;-77
2022/06/29 12:12:50;;;;;;;5.28;1.80;;;;;;;;;;5067473;28;20013;-76
2022/06/29 12:15:17;;;;;;;3.58;2.05;;;;;;;;;;5067907;28;20788;-77
2022/06/29 12:17:43;;;;;;;2.10;1.70;;;;;;;;;;5061878;28;20041;-77
2022/06/29 12:20:10;;;;;;;2.65;1.90;;;;;;;;;;5064841;28;20514;-76
2022/06/29 12:22:38;;;;;;;3.72;1.98;;;;;;;;;;5065116;28;20051;-73
2022/06/29 12:25:05;;;;;;;2.50;1.75;;;;;;;;;;5059459;28;20382;-76
2022/06/29 12:27:31;;;;;;;4.22;2.08;;;;;;;;;;5062544;28;20049;-76
2022/06/29 12:29:57;;;;;;;3.03;1.90;;;;;;;;;;5060348;28;20021;-77
2022/06/29 12:32:24;;;;;;;3.92;1.92;;;;;;;;;;5062280;28;20025;-76
2022/06/29 12:34:50;;;;;;;1.75;1.60;;;;;;;;;;5062827;28;20024;-74
2022/06/29 12:37:17;;;;;;;2.65;1.70;;;;;;;;;;5059840;28;20364;-74
2022/06/29 12:39:44;;;;;;;4.00;1.90;;;;;;;;;;5062779;28;20037;-77
2022/06/29 12:42:10;;;;;;;1.75;1.65;;;;;;;;;;5061519;28;20032;-77
2022/06/29 12:44:36;;;;;;;2.03;1.63;;;;;;;;;;5061511;28;20070;-80
2022/06/29 12:47:02;;;;;;;3.25;1.90;;;;;;;;;;5060396;28;20012;-78
2022/06/29 12:49:29;;;;;;;2.90;1.60;;;;;;;;;;5067631;28;20032;-76
2022/06/29 12:51:55;;;;;;;2.15;1.60;;;;;;;;;;5062493;28;20064;-75
2022/06/29 12:54:21;;;;;;;3.95;2.45;;;;;;;;;;5064566;28;20013;-77
2022/06/29 12:56:47;;;;;;;3.40;2.28;;;;;;;;;;5060511;28;20030;-78
2022/06/29 12:59:14;;;;;;;2.58;1.90;;;;;;;;;;5064165;28;20027;-79
2022/06/29 13:01:40;;;;;;;2.92;2.22;;;;;;;;;;5061395;28;20025;-79
2022/06/29 13:04:07;;;;;;;2.00;1.80;;;;;;;;;;5062199;28;20120;-78
2022/06/29 13:06:33;;;;;;;3.15;2.05;;;;;;;;;;5060631;28;20104;-76
2022/06/29 13:08:59;;;;;;;4.38;2.30;;;;;;;;;;5059267;28;20078;-74
2022/06/29 13:11:25;;;;;;;3.88;2.00;;;;;;;;;;5061862;28;20029;-78
2022/06/29 13:13:51;;;;;;;3.30;1.85;;;;;;;;;;5062147;28;20088;-75
2022/06/29 13:16:18;;;;;;;3.45;1.70;;;;;;;;;;5060161;28;20064;-77
2022/06/29 13:18:44;;;;;;;3.05;1.92;;;;;;;;;;5057182;28;20028;-74
2022/06/29 13:21:10;;;;;;;2.67;1.80;;;;;;;;;;5059661;28;20107;-75
2022/06/29 13:23:40;;;;;;;2.83;2.05;;;;;;;;;;5059026;28;20124;-74
2022/06/29 13:26:07;;;;;;;2.75;1.70;;;;;;;;;;5063911;28;20507;-75
2022/06/29 13:28:33;;;;;;;1.90;1.67;;;;;;;;;;5060857;28;20056;-74
2022/06/29 13:31:00;;;;;;;3.10;1.83;;;;;;;;;;5058424;28;20561;-74
2022/06/29 13:33:26;;;;;;;3.33;1.90;;;;;;;;;;5059452;28;20056;-75
2022/06/29 13:35:52;;;;;;;3.45;1.90;;;;;;;;;;5059512;28;20024;-73
2022/06/29 13:38:18;;;;;;;1.90;1.70;;;;;;;;;;5059772;28;20552;-75
2022/06/29 13:40:44;;;;;;;1.70;1.60;;;;;;;;;;5062163;28;20075;-74
2022/06/29 13:43:10;;;;;;;3.08;1.70;;;;;;;;;;5059183;28;20429;-74
2022/06/29 13:45:36;;;;;;;1.80;1.70;;;;;;;;;;5061559;28;20417;-74
2022/06/29 13:48:03;;;;;;;2.72;1.95;;;;;;;;;;5060881;28;20034;-74
2022/06/29 13:50:29;;;;;;;2.17;1.50;;;;;;;;;;5059402;28;20146;-75
2022/06/29 13:52:57;;;;;;;2.10;1.60;;;;;;;;;;5062809;28;20032;-75
2022/06/29 13:55:23;;;;;;;3.47;1.70;;;;;;;;;;5065100;28;20572;-76
2022/06/29 13:57:50;;;;;;;4.75;2.05;;;;;;;;;;5063232;28;20102;-75
2022/06/29 14:00:18;;;;;;;2.00;1.65;;;;;;;;;;5060686;28;20020;-75
2022/06/29 14:02:44;;;;;;;3.63;1.83;;;;;;;;;;5057835;28;20070;-74
2022/06/29 14:05:10;;;;;;;2.60;1.80;;;;;;;;;;5059252;28;20518;-75
2022/06/29 14:07:36;;;;;;;3.05;1.77;;;;;;;;;;5063820;28;20028;-73
2022/06/29 14:10:03;;;;;;;3.65;1.80;;;;;;;;;;5061553;28;20108;-74
2022/06/29 14:12:29;;;;;;;2.72;1.85;;;;;;;;;;5061499;28;20108;-76
2022/06/29 14:14:55;;;;;;;2.05;1.80;;;;;;;;;;5066053;28;20025;-76
2022/06/29 14:17:21;;;;;;;2.25;1.75;;;;;;;;;;5062764;28;20111;-76
2022/06/29 14:19:47;;;;;;;2.67;1.80;;;;;;;;;;5059567;28;20024;-75
2022/06/29 14:22:13;;;;;;;2.00;1.60;;;;;;;;;;5059349;28;20467;-77
2022/06/29 14:24:39;;;;;;;2.33;1.80;;;;;;;;;;5060205;28;20565;-76
2022/06/29 14:27:05;;;;;;;1.90;1.70;;;;;;;;;;5057621;28;20048;-75
2022/06/29 14:29:32;;;;;;;2.20;1.80;;;;;;;;;;5063245;28;20029;-76
2022/06/29 14:31:58;;;;;;;2.97;1.60;;;;;;;;;;5058638;28;20040;-75
2022/06/29 14:34:24;;;;;;;1.95;1.73;;;;;;;;;;5062054;28;20021;-76
2022/06/29 14:36:50;;;;;;;2.58;2.20;;;;;;;;;;5061489;28;20024;-77
2022/06/29 14:39:16;;;;;;;1.73;1.63;;;;;;;;;;5066542;28;20047;-76
2022/06/29 14:41:42;;;;;;;1.98;1.60;;;;;;;;;;5066492;28;20578;-75
2022/06/29 14:44:10;;;;;;;3.15;2.00;;;;;;;;;;5060375;28;20128;-76
2022/06/29 14:46:36;;;;;;;1.83;1.73;;;;;;;;;;5059703;28;20017;-76
2022/06/29 14:49:02;;;;;;;4.72;2.03;;;;;;;;;;5057487;28;20092;-74
2022/06/29 14:51:29;;;;;;;1.75;1.65;;;;;;;;;;5057630;28;20028;-75
2022/06/29 14:53:55;;;;;;;2.38;1.80;;;;;;;;;;5056584;28;20025;-75
2022/06/29 14:56:21;;;;;;;2.47;1.80;;;;;;;;;;5057504;28;20028;-73
2022/06/29 14:58:49;;;;;;;2.65;1.95;;;;;;;;;;5058882;28;20035;-74
2022/06/29 15:01:16;;;;;;;3.13;1.90;;;;;;;;;;5057763;28;20058;-75